Ash Grove, Missouri
Current Conditions -  °F | °C
As of 11:52 PM on Thursday 30 Oct 2014 (Local Time) from KSGF Reporting Station
Clear Clear  
Wind Chill: 52°   Ceiling: Unl
Heat Index: 52°   Visibility: 10mi
Dew Point: 40°   Wind: 7mph
Humidity: 63%   Direction: 310°NW
Pressure: 30.11"   Gusts: NA
Location:  37.32°N, 93.59°W
Report Text: KSGF 310452Z 31006KT 10SM CLR 11/04 A3011 RMK AO2 SLP194 T01110044
Loading
Personal Weather Stations






























Interactive Weather Map New forecast layout! Learn more

10-Day Weather Forecast

Advertisements
Track Severe Weather on mobile